Home   Weather   Noumea   Past weeks
Flag for New Caledonia

Past Weather in Noumea, New Caledonia, New Caledonia — Yesterday and Last 2 Weeks

Currently: 72 °F. Passing clouds. (Weather station: La Tontouta Nlle-Caledonie, New Caledonia). See more current weather

Past Weather in Noumea — Graph

°F

Noumea Temperature Yesterday

Maximum temperature yesterday: 86 °F (at 12:00 pm)
Minimum temperature yesterday: 66 °F (at 5:00 am)
Average temperature yesterday: 76 °F

High & Low Weather Summary for the Past Weeks

 TemperatureHumidityPressure
High95 °F (Apr 10, 1:00 pm)100% (Apr 6, 4:30 am)30.12 "Hg (Apr 6, 4:30 am)
Low63 °F (Mar 31, 3:30 am)40% (Apr 7, 12:00 pm)29.74 "Hg (Apr 10, 1:30 pm)
Average77 °F76%29.93 "Hg
* Reported Mar 31 12:00 am — Apr 15 12:00 am, Noumea. Weather by CustomWeather, © 2024

Note: Actual official high and low records may vary slightly from our data, if they occured in-between our weather recording intervals... More about our weather records

Noumea Weather History for the Previous 24 Hours

Scroll right to see more
 ConditionsComfort  
Time TempWeatherWind HumidityBarometerVisibility
12:00 am
Mon, Apr 15
72 °FClear.3 mph83%30.09 "Hg10 mi
11:30 pm
Sun, Apr 14
72 °FClear.2 mph83%30.09 "Hg10 mi
11:00 pm73 °FPassing clouds.2 mph78%30.09 "HgN/A
10:30 pm73 °FPassing clouds.3 mph78%30.12 "HgN/A
10:00 pm73 °FClear.2 mph83%30.12 "Hg10 mi
9:30 pm73 °FPassing clouds.3 mph83%30.09 "HgN/A
9:00 pm73 °FPassing clouds.3 mph83%30.09 "HgN/A
8:30 pm73 °FClear.8 mph83%30.09 "Hg10 mi
8:00 pm73 °FClear.7 mph83%30.09 "Hg10 mi
7:30 pm75 °FPassing clouds.7 mph78%30.07 "HgN/A
7:00 pm75 °FClear.9 mph78%30.07 "Hg10 mi
6:00 pm77 °FPassing clouds.14 mph74%30.04 "HgN/A
5:30 pm79 °FSunny.14 mph70%30.01 "Hg10 mi
5:00 pm81 °FSunny.14 mph66%30.01 "Hg10 mi
4:30 pm81 °FSunny.16 mph66%30.01 "Hg10 mi
4:00 pm82 °FSunny.16 mph66%30.01 "Hg10 mi
3:30 pm82 °FSunny.17 mph62%30.01 "Hg10 mi
3:00 pm84 °FPassing clouds.16 mph58%30.01 "HgN/A
2:30 pm84 °FSunny.15 mph58%30.01 "Hg10 mi
2:00 pm86 °FPassing clouds.15 mph59%30.01 "HgN/A
1:30 pm84 °FScattered clouds.13 mph62%30.01 "HgN/A
12:30 pm86 °FScattered clouds.10 mph59%30.01 "HgN/A
12:00 pm86 °FPassing clouds.8 mph55%30.04 "HgN/A
11:30 am84 °FScattered clouds.8 mph62%30.04 "HgN/A
11:00 am84 °FPartly sunny.6 mph58%30.04 "HgN/A
10:30 am84 °FPassing clouds.5 mph62%30.07 "HgN/A
10:00 am82 °FPassing clouds.6 mph62%30.07 "HgN/A
9:30 am81 °FSunny.3 mph66%30.07 "Hg10 mi
9:00 am79 °FPassing clouds.5 mph70%30.07 "HgN/A
8:30 am77 °FSunny.3 mph74%30.07 "Hg10 mi
8:00 am75 °FSunny.1 mph78%30.07 "Hg10 mi
7:30 am72 °FSunny.No wind88%30.07 "Hg10 mi
7:00 am68 °FSunny.No wind94%30.07 "Hg10 mi
6:00 am68 °FClear.No wind88%30.04 "Hg10 mi
5:30 am66 °FClear.No wind94%30.04 "Hg10 mi
5:00 am66 °FPassing clouds.No wind94%30.01 "HgN/A
4:30 am68 °FClear.1 mph94%30.01 "Hg10 mi
4:00 am68 °FClear.2 mph94%30.01 "Hg10 mi
3:30 am68 °FClear.1 mph94%30.01 "Hg10 mi
3:00 am68 °FClear.2 mph94%30.01 "Hg10 mi
2:30 am68 °FClear.2 mph94%30.01 "Hg10 mi
2:00 am70 °FClear.1 mph88%30.01 "Hg10 mi
1:30 am70 °FPassing clouds.1 mph88%30.04 "HgN/A
1:00 am70 °FClear.No wind88%30.04 "Hg10 mi
Weather by CustomWeather, © 2024

See weather overview